sensor_id;sensor_type;location;lat;lon;timestamp;P1;durP1;ratioP1;P2;durP2;ratioP2
47089;SDS011;32840;52.516;13.294;2023-02-28T00:00:41;9.98;;;4.60;;
47089;SDS011;32840;52.516;13.294;2023-02-28T00:03:27;11.57;;;4.97;;
47089;SDS011;32840;52.516;13.294;2023-02-28T00:06:12;9.70;;;4.80;;
47089;SDS011;32840;52.516;13.294;2023-02-28T00:08:57;12.95;;;4.53;;
47089;SDS011;32840;52.516;13.294;2023-02-28T00:11:41;5.80;;;4.00;;
47089;SDS011;32840;52.516;13.294;2023-02-28T00:14:26;8.13;;;4.60;;
47089;SDS011;32840;52.516;13.294;2023-02-28T00:17:11;11.38;;;4.82;;
47089;SDS011;32840;52.516;13.294;2023-02-28T00:19:56;11.18;;;4.38;;
47089;SDS011;32840;52.516;13.294;2023-02-28T00:22:47;9.40;;;4.70;;
47089;SDS011;32840;52.516;13.294;2023-02-28T00:25:34;5.70;;;3.50;;
47089;SDS011;32840;52.516;13.294;2023-02-28T00:28:19;6.93;;;4.07;;
47089;SDS011;32840;52.516;13.294;2023-02-28T00:31:03;11.95;;;4.43;;
47089;SDS011;32840;52.516;13.294;2023-02-28T00:33:49;7.53;;;3.75;;
47089;SDS011;32840;52.516;13.294;2023-02-28T00:36:36;6.88;;;3.80;;
47089;SDS011;32840;52.516;13.294;2023-02-28T00:39:20;10.27;;;4.07;;
47089;SDS011;32840;52.516;13.294;2023-02-28T00:42:06;6.97;;;3.75;;
47089;SDS011;32840;52.516;13.294;2023-02-28T00:44:51;8.52;;;4.28;;
47089;SDS011;32840;52.516;13.294;2023-02-28T00:47:36;10.45;;;3.90;;
47089;SDS011;32840;52.516;13.294;2023-02-28T00:50:21;9.23;;;3.67;;
47089;SDS011;32840;52.516;13.294;2023-02-28T00:53:06;9.30;;;3.83;;
47089;SDS011;32840;52.516;13.294;2023-02-28T00:55:51;7.88;;;3.38;;
47089;SDS011;32840;52.516;13.294;2023-02-28T00:58:36;10.80;;;4.45;;
47089;SDS011;32840;52.516;13.294;2023-02-28T01:01:21;9.38;;;4.13;;
47089;SDS011;32840;52.516;13.294;2023-02-28T01:04:06;9.02;;;4.00;;
47089;SDS011;32840;52.516;13.294;2023-02-28T01:06:51;10.13;;;4.13;;
47089;SDS011;32840;52.516;13.294;2023-02-28T01:09:35;7.15;;;4.25;;
47089;SDS011;32840;52.516;13.294;2023-02-28T01:12:20;9.07;;;4.38;;
47089;SDS011;32840;52.516;13.294;2023-02-28T01:15:05;7.78;;;4.05;;
47089;SDS011;32840;52.516;13.294;2023-02-28T01:17:51;9.93;;;4.57;;
47089;SDS011;32840;52.516;13.294;2023-02-28T01:20:36;10.60;;;4.10;;
47089;SDS011;32840;52.516;13.294;2023-02-28T01:23:21;8.68;;;4.47;;
47089;SDS011;32840;52.516;13.294;2023-02-28T01:26:09;8.82;;;4.32;;
47089;SDS011;32840;52.516;13.294;2023-02-28T01:28:55;9.20;;;3.78;;
47089;SDS011;32840;52.516;13.294;2023-02-28T01:31:40;10.38;;;3.92;;
47089;SDS011;32840;52.516;13.294;2023-02-28T01:34:25;7.90;;;4.30;;
47089;SDS011;32840;52.516;13.294;2023-02-28T01:37:10;7.93;;;4.53;;
47089;SDS011;32840;52.516;13.294;2023-02-28T01:39:56;9.93;;;4.03;;
47089;SDS011;32840;52.516;13.294;2023-02-28T01:42:41;10.43;;;4.85;;
47089;SDS011;32840;52.516;13.294;2023-02-28T01:45:27;9.02;;;3.95;;
47089;SDS011;32840;52.516;13.294;2023-02-28T01:48:14;9.52;;;4.13;;
47089;SDS011;32840;52.516;13.294;2023-02-28T01:51:01;9.45;;;4.05;;
47089;SDS011;32840;52.516;13.294;2023-02-28T01:53:51;7.97;;;4.45;;
47089;SDS011;32840;52.516;13.294;2023-02-28T01:56:41;7.93;;;4.07;;
47089;SDS011;32840;52.516;13.294;2023-02-28T01:59:33;7.45;;;4.30;;
47089;SDS011;32840;52.516;13.294;2023-02-28T02:02:22;8.18;;;4.15;;
47089;SDS011;32840;52.516;13.294;2023-02-28T02:05:15;9.35;;;4.35;;
47089;SDS011;32840;52.516;13.294;2023-02-28T02:08:09;9.32;;;4.60;;
47089;SDS011;32840;52.516;13.294;2023-02-28T02:10:57;10.13;;;4.10;;
47089;SDS011;32840;52.516;13.294;2023-02-28T02:16:50;8.18;;;4.45;;
47089;SDS011;32840;52.516;13.294;2023-02-28T02:23:02;9.30;;;4.45;;
47089;SDS011;32840;52.516;13.294;2023-02-28T02:29:32;9.82;;;4.82;;
47089;SDS011;32840;52.516;13.294;2023-02-28T02:32:27;7.85;;;4.40;;
47089;SDS011;32840;52.516;13.294;2023-02-28T02:35:47;8.27;;;4.57;;
47089;SDS011;32840;52.516;13.294;2023-02-28T02:44:31;9.43;;;4.60;;
47089;SDS011;32840;52.516;13.294;2023-02-28T02:47:30;8.90;;;4.68;;
47089;SDS011;32840;52.516;13.294;2023-02-28T02:50:18;8.18;;;4.45;;
47089;SDS011;32840;52.516;13.294;2023-02-28T02:53:08;10.88;;;4.88;;
47089;SDS011;32840;52.516;13.294;2023-02-28T02:55:55;8.73;;;4.30;;
47089;SDS011;32840;52.516;13.294;2023-02-28T02:58:41;7.90;;;4.57;;
47089;SDS011;32840;52.516;13.294;2023-02-28T03:01:28;7.65;;;4.68;;
47089;SDS011;32840;52.516;13.294;2023-02-28T03:04:19;9.40;;;4.30;;
47089;SDS011;32840;52.516;13.294;2023-02-28T03:07:05;11.13;;;4.40;;
47089;SDS011;32840;52.516;13.294;2023-02-28T03:09:54;10.95;;;5.38;;
47089;SDS011;32840;52.516;13.294;2023-02-28T03:12:41;9.60;;;4.65;;
47089;SDS011;32840;52.516;13.294;2023-02-28T03:15:50;11.77;;;4.35;;
47089;SDS011;32840;52.516;13.294;2023-02-28T03:19:00;16.80;;;4.72;;
47089;SDS011;32840;52.516;13.294;2023-02-28T03:22:14;10.63;;;5.38;;
47089;SDS011;32840;52.516;13.294;2023-02-28T03:25:05;9.00;;;4.82;;
47089;SDS011;32840;52.516;13.294;2023-02-28T03:28:08;11.73;;;5.07;;
47089;SDS011;32840;52.516;13.294;2023-02-28T03:34:12;11.55;;;5.28;;
47089;SDS011;32840;52.516;13.294;2023-02-28T03:37:11;12.23;;;5.20;;
47089;SDS011;32840;52.516;13.294;2023-02-28T03:40:01;10.15;;;4.70;;
47089;SDS011;32840;52.516;13.294;2023-02-28T03:42:54;10.18;;;5.05;;
47089;SDS011;32840;52.516;13.294;2023-02-28T03:45:43;11.43;;;5.32;;
47089;SDS011;32840;52.516;13.294;2023-02-28T03:48:34;11.13;;;5.20;;
47089;SDS011;32840;52.516;13.294;2023-02-28T03:51:28;12.00;;;5.50;;
47089;SDS011;32840;52.516;13.294;2023-02-28T03:54:15;14.18;;;5.50;;
47089;SDS011;32840;52.516;13.294;2023-02-28T04:00:08;7.80;;;4.47;;
47089;SDS011;32840;52.516;13.294;2023-02-28T04:02:54;12.75;;;7.30;;
47089;SDS011;32840;52.516;13.294;2023-02-28T04:05:50;11.30;;;5.28;;
47089;SDS011;32840;52.516;13.294;2023-02-28T04:08:36;10.88;;;6.07;;
47089;SDS011;32840;52.516;13.294;2023-02-28T04:11:23;12.25;;;5.78;;
47089;SDS011;32840;52.516;13.294;2023-02-28T04:14:13;9.90;;;4.95;;
47089;SDS011;32840;52.516;13.294;2023-02-28T04:16:59;10.68;;;5.57;;
47089;SDS011;32840;52.516;13.294;2023-02-28T04:19:44;12.02;;;6.35;;
47089;SDS011;32840;52.516;13.294;2023-02-28T04:22:29;9.15;;;5.22;;
47089;SDS011;32840;52.516;13.294;2023-02-28T04:25:14;10.50;;;5.70;;
47089;SDS011;32840;52.516;13.294;2023-02-28T04:27:58;10.25;;;5.93;;
47089;SDS011;32840;52.516;13.294;2023-02-28T04:30:44;10.04;;;5.46;;
47089;SDS011;32840;52.516;13.294;2023-02-28T04:33:29;10.25;;;5.53;;
47089;SDS011;32840;52.516;13.294;2023-02-28T04:36:16;9.32;;;5.57;;
47089;SDS011;32840;52.516;13.294;2023-02-28T04:39:02;10.40;;;5.60;;
47089;SDS011;32840;52.516;13.294;2023-02-28T04:41:47;10.05;;;5.32;;
47089;SDS011;32840;52.516;13.294;2023-02-28T04:44:32;11.38;;;5.70;;
47089;SDS011;32840;52.516;13.294;2023-02-28T04:47:17;28.25;;;16.08;;
47089;SDS011;32840;52.516;13.294;2023-02-28T04:50:02;10.80;;;5.82;;
47089;SDS011;32840;52.516;13.294;2023-02-28T04:52:47;12.90;;;6.07;;
47089;SDS011;32840;52.516;13.294;2023-02-28T04:55:33;11.32;;;5.68;;
47089;SDS011;32840;52.516;13.294;2023-02-28T04:58:17;9.05;;;5.43;;
47089;SDS011;32840;52.516;13.294;2023-02-28T05:01:13;12.15;;;6.30;;
47089;SDS011;32840;52.516;13.294;2023-02-28T05:04:02;11.98;;;6.70;;
47089;SDS011;32840;52.516;13.294;2023-02-28T05:06:47;13.85;;;6.30;;
47089;SDS011;32840;52.516;13.294;2023-02-28T05:09:32;14.07;;;6.40;;
47089;SDS011;32840;52.516;13.294;2023-02-28T05:12:17;13.10;;;5.90;;
47089;SDS011;32840;52.516;13.294;2023-02-28T05:15:03;11.75;;;6.35;;
47089;SDS011;32840;52.516;13.294;2023-02-28T05:17:49;18.60;;;9.88;;
47089;SDS011;32840;52.516;13.294;2023-02-28T05:20:33;14.95;;;7.88;;
47089;SDS011;32840;52.516;13.294;2023-02-28T05:23:19;13.38;;;6.03;;
47089;SDS011;32840;52.516;13.294;2023-02-28T05:26:06;13.82;;;6.55;;
47089;SDS011;32840;52.516;13.294;2023-02-28T05:28:51;13.02;;;6.88;;
47089;SDS011;32840;52.516;13.294;2023-02-28T05:31:36;15.88;;;7.03;;
47089;SDS011;32840;52.516;13.294;2023-02-28T05:34:22;12.93;;;6.53;;
47089;SDS011;32840;52.516;13.294;2023-02-28T05:37:10;14.23;;;6.68;;
47089;SDS011;32840;52.516;13.294;2023-02-28T05:39:57;13.63;;;6.88;;
47089;SDS011;32840;52.516;13.294;2023-02-28T05:42:42;12.82;;;6.65;;
47089;SDS011;32840;52.516;13.294;2023-02-28T05:45:27;13.93;;;7.18;;
47089;SDS011;32840;52.516;13.294;2023-02-28T05:48:12;14.25;;;6.70;;
47089;SDS011;32840;52.516;13.294;2023-02-28T05:50:57;15.32;;;7.47;;
47089;SDS011;32840;52.516;13.294;2023-02-28T05:53:42;18.67;;;8.68;;
47089;SDS011;32840;52.516;13.294;2023-02-28T05:56:27;14.02;;;7.55;;
47089;SDS011;32840;52.516;13.294;2023-02-28T05:59:12;16.83;;;7.53;;
47089;SDS011;32840;52.516;13.294;2023-02-28T06:01:57;16.75;;;8.73;;
47089;SDS011;32840;52.516;13.294;2023-02-28T06:04:43;19.75;;;8.32;;
47089;SDS011;32840;52.516;13.294;2023-02-28T06:07:28;16.55;;;7.32;;
47089;SDS011;32840;52.516;13.294;2023-02-28T06:10:13;18.02;;;8.20;;
47089;SDS011;32840;52.516;13.294;2023-02-28T06:13:02;19.17;;;8.57;;
47089;SDS011;32840;52.516;13.294;2023-02-28T06:15:48;19.02;;;7.55;;
47089;SDS011;32840;52.516;13.294;2023-02-28T06:18:33;14.25;;;7.18;;
47089;SDS011;32840;52.516;13.294;2023-02-28T06:21:18;15.90;;;8.25;;
47089;SDS011;32840;52.516;13.294;2023-02-28T06:24:03;18.65;;;8.38;;
47089;SDS011;32840;52.516;13.294;2023-02-28T06:26:48;13.70;;;7.68;;
47089;SDS011;32840;52.516;13.294;2023-02-28T06:29:33;18.77;;;8.02;;
47089;SDS011;32840;52.516;13.294;2023-02-28T06:32:19;18.67;;;8.65;;
47089;SDS011;32840;52.516;13.294;2023-02-28T06:35:04;16.48;;;8.18;;
47089;SDS011;32840;52.516;13.294;2023-02-28T06:37:49;19.35;;;8.65;;
47089;SDS011;32840;52.516;13.294;2023-02-28T06:40:34;19.15;;;8.60;;
47089;SDS011;32840;52.516;13.294;2023-02-28T06:43:19;20.95;;;8.90;;
47089;SDS011;32840;52.516;13.294;2023-02-28T06:46:05;16.73;;;8.95;;
47089;SDS011;32840;52.516;13.294;2023-02-28T06:48:51;28.48;;;12.85;;
47089;SDS011;32840;52.516;13.294;2023-02-28T06:51:37;16.50;;;8.95;;
47089;SDS011;32840;52.516;13.294;2023-02-28T06:54:25;28.27;;;11.07;;
47089;SDS011;32840;52.516;13.294;2023-02-28T06:57:11;21.55;;;10.25;;
47089;SDS011;32840;52.516;13.294;2023-02-28T06:59:57;23.45;;;10.40;;
47089;SDS011;32840;52.516;13.294;2023-02-28T07:02:43;22.92;;;10.75;;
47089;SDS011;32840;52.516;13.294;2023-02-28T07:05:27;17.80;;;9.65;;
47089;SDS011;32840;52.516;13.294;2023-02-28T07:08:13;20.05;;;10.57;;
47089;SDS011;32840;52.516;13.294;2023-02-28T07:10:58;21.40;;;10.38;;
47089;SDS011;32840;52.516;13.294;2023-02-28T07:13:43;22.40;;;10.73;;
47089;SDS011;32840;52.516;13.294;2023-02-28T07:16:28;20.90;;;9.50;;
47089;SDS011;32840;52.516;13.294;2023-02-28T07:19:13;28.65;;;10.10;;
47089;SDS011;32840;52.516;13.294;2023-02-28T07:21:57;21.50;;;10.18;;
47089;SDS011;32840;52.516;13.294;2023-02-28T07:24:42;20.90;;;9.43;;
47089;SDS011;32840;52.516;13.294;2023-02-28T07:27:27;16.75;;;8.73;;
47089;SDS011;32840;52.516;13.294;2023-02-28T07:30:12;28.13;;;10.23;;
47089;SDS011;32840;52.516;13.294;2023-02-28T07:32:57;18.20;;;9.27;;
47089;SDS011;32840;52.516;13.294;2023-02-28T07:35:42;37.47;;;10.05;;
47089;SDS011;32840;52.516;13.294;2023-02-28T07:38:28;33.72;;;16.75;;
47089;SDS011;32840;52.516;13.294;2023-02-28T07:41:12;39.80;;;17.42;;
47089;SDS011;32840;52.516;13.294;2023-02-28T07:43:58;23.70;;;10.88;;
47089;SDS011;32840;52.516;13.294;2023-02-28T07:46:43;23.00;;;10.18;;
47089;SDS011;32840;52.516;13.294;2023-02-28T07:49:28;23.20;;;10.25;;
47089;SDS011;32840;52.516;13.294;2023-02-28T07:52:13;18.45;;;10.07;;
47089;SDS011;32840;52.516;13.294;2023-02-28T07:54:58;17.60;;;10.00;;
47089;SDS011;32840;52.516;13.294;2023-02-28T07:57:43;16.55;;;9.68;;
47089;SDS011;32840;52.516;13.294;2023-02-28T08:00:27;19.85;;;10.02;;
47089;SDS011;32840;52.516;13.294;2023-02-28T08:03:13;18.25;;;9.70;;
47089;SDS011;32840;52.516;13.294;2023-02-28T08:05:57;18.75;;;8.90;;
47089;SDS011;32840;52.516;13.294;2023-02-28T08:08:42;20.33;;;10.30;;
47089;SDS011;32840;52.516;13.294;2023-02-28T08:11:28;17.42;;;9.50;;
47089;SDS011;32840;52.516;13.294;2023-02-28T08:14:13;21.25;;;11.02;;
47089;SDS011;32840;52.516;13.294;2023-02-28T08:16:58;18.58;;;9.45;;
47089;SDS011;32840;52.516;13.294;2023-02-28T08:19:46;19.05;;;9.73;;
47089;SDS011;32840;52.516;13.294;2023-02-28T08:22:31;13.85;;;7.30;;
47089;SDS011;32840;52.516;13.294;2023-02-28T08:25:16;15.18;;;7.38;;
47089;SDS011;32840;52.516;13.294;2023-02-28T08:28:02;14.65;;;7.30;;
47089;SDS011;32840;52.516;13.294;2023-02-28T08:30:47;9.88;;;4.45;;
47089;SDS011;32840;52.516;13.294;2023-02-28T08:33:32;5.18;;;2.58;;
47089;SDS011;32840;52.516;13.294;2023-02-28T08:36:17;5.47;;;2.63;;
47089;SDS011;32840;52.516;13.294;2023-02-28T08:39:02;4.45;;;2.00;;
47089;SDS011;32840;52.516;13.294;2023-02-28T08:41:47;5.95;;;2.72;;
47089;SDS011;32840;52.516;13.294;2023-02-28T08:44:32;4.13;;;2.33;;
47089;SDS011;32840;52.516;13.294;2023-02-28T08:47:17;6.18;;;2.95;;
47089;SDS011;32840;52.516;13.294;2023-02-28T08:50:03;6.00;;;2.63;;
47089;SDS011;32840;52.516;13.294;2023-02-28T08:52:48;7.32;;;4.10;;
47089;SDS011;32840;52.516;13.294;2023-02-28T08:55:33;9.85;;;4.18;;
47089;SDS011;32840;52.516;13.294;2023-02-28T08:58:18;9.07;;;3.80;;
47089;SDS011;32840;52.516;13.294;2023-02-28T09:01:10;7.05;;;2.25;;
47089;SDS011;32840;52.516;13.294;2023-02-28T09:03:57;11.95;;;5.10;;
47089;SDS011;32840;52.516;13.294;2023-02-28T09:06:42;6.68;;;3.00;;
47089;SDS011;32840;52.516;13.294;2023-02-28T09:09:28;10.02;;;2.58;;
47089;SDS011;32840;52.516;13.294;2023-02-28T09:12:13;5.63;;;3.03;;
47089;SDS011;32840;52.516;13.294;2023-02-28T09:14:58;6.95;;;3.03;;
47089;SDS011;32840;52.516;13.294;2023-02-28T09:17:43;7.05;;;3.25;;
47089;SDS011;32840;52.516;13.294;2023-02-28T09:20:28;4.05;;;2.33;;
47089;SDS011;32840;52.516;13.294;2023-02-28T09:23:13;7.85;;;4.22;;
47089;SDS011;32840;52.516;13.294;2023-02-28T09:25:58;14.23;;;3.33;;
47089;SDS011;32840;52.516;13.294;2023-02-28T09:28:43;4.78;;;2.47;;
47089;SDS011;32840;52.516;13.294;2023-02-28T09:31:28;6.05;;;3.03;;
47089;SDS011;32840;52.516;13.294;2023-02-28T09:34:13;5.18;;;2.83;;
47089;SDS011;32840;52.516;13.294;2023-02-28T09:36:58;4.30;;;2.78;;
47089;SDS011;32840;52.516;13.294;2023-02-28T09:39:43;4.82;;;2.22;;
47089;SDS011;32840;52.516;13.294;2023-02-28T09:42:30;7.45;;;2.25;;
47089;SDS011;32840;52.516;13.294;2023-02-28T09:48:23;6.50;;;3.05;;
47089;SDS011;32840;52.516;13.294;2023-02-28T09:51:28;11.63;;;4.30;;
47089;SDS011;32840;52.516;13.294;2023-02-28T09:54:20;7.78;;;3.70;;
47089;SDS011;32840;52.516;13.294;2023-02-28T09:57:08;5.43;;;2.70;;
47089;SDS011;32840;52.516;13.294;2023-02-28T10:06:19;20.50;;;8.52;;
47089;SDS011;32840;52.516;13.294;2023-02-28T10:09:11;5.88;;;2.08;;
47089;SDS011;32840;52.516;13.294;2023-02-28T10:12:10;21.48;;;9.65;;
47089;SDS011;32840;52.516;13.294;2023-02-28T10:14:57;8.45;;;3.00;;
47089;SDS011;32840;52.516;13.294;2023-02-28T10:17:44;6.35;;;2.40;;
47089;SDS011;32840;52.516;13.294;2023-02-28T10:20:35;4.38;;;2.50;;
47089;SDS011;32840;52.516;13.294;2023-02-28T10:23:36;7.03;;;3.20;;
47089;SDS011;32840;52.516;13.294;2023-02-28T10:26:21;6.72;;;2.58;;
47089;SDS011;32840;52.516;13.294;2023-02-28T10:29:08;6.93;;;3.08;;
47089;SDS011;32840;52.516;13.294;2023-02-28T10:31:53;5.68;;;3.50;;
47089;SDS011;32840;52.516;13.294;2023-02-28T10:34:38;8.82;;;5.35;;
47089;SDS011;32840;52.516;13.294;2023-02-28T10:37:22;6.10;;;2.85;;
47089;SDS011;32840;52.516;13.294;2023-02-28T10:40:25;7.35;;;2.85;;
47089;SDS011;32840;52.516;13.294;2023-02-28T10:45:59;5.47;;;2.70;;
47089;SDS011;32840;52.516;13.294;2023-02-28T10:48:50;6.63;;;2.40;;
47089;SDS011;32840;52.516;13.294;2023-02-28T10:51:45;5.50;;;2.38;;
47089;SDS011;32840;52.516;13.294;2023-02-28T10:54:35;5.80;;;3.10;;
47089;SDS011;32840;52.516;13.294;2023-02-28T10:57:22;6.90;;;2.63;;
47089;SDS011;32840;52.516;13.294;2023-02-28T11:00:20;5.30;;;2.90;;
47089;SDS011;32840;52.516;13.294;2023-02-28T11:03:20;8.18;;;3.72;;
47089;SDS011;32840;52.516;13.294;2023-02-28T11:06:19;4.45;;;2.70;;
47089;SDS011;32840;52.516;13.294;2023-02-28T11:09:16;7.85;;;3.30;;
47089;SDS011;32840;52.516;13.294;2023-02-28T11:12:07;10.57;;;3.95;;
47089;SDS011;32840;52.516;13.294;2023-02-28T11:18:18;10.35;;;3.95;;
47089;SDS011;32840;52.516;13.294;2023-02-28T11:21:07;8.18;;;3.47;;
47089;SDS011;32840;52.516;13.294;2023-02-28T11:24:02;5.68;;;2.42;;
47089;SDS011;32840;52.516;13.294;2023-02-28T11:26:56;6.93;;;2.63;;
47089;SDS011;32840;52.516;13.294;2023-02-28T11:29:42;8.07;;;3.42;;
47089;SDS011;32840;52.516;13.294;2023-02-28T11:32:32;4.53;;;2.33;;
47089;SDS011;32840;52.516;13.294;2023-02-28T11:38:09;7.90;;;2.75;;
47089;SDS011;32840;52.516;13.294;2023-02-28T11:41:02;5.37;;;2.87;;
47089;SDS011;32840;52.516;13.294;2023-02-28T11:47:13;6.97;;;2.80;;
47089;SDS011;32840;52.516;13.294;2023-02-28T11:50:22;4.55;;;2.63;;
47089;SDS011;32840;52.516;13.294;2023-02-28T11:53:49;6.93;;;2.90;;
47089;SDS011;32840;52.516;13.294;2023-02-28T11:56:59;7.97;;;3.75;;
47089;SDS011;32840;52.516;13.294;2023-02-28T11:59:56;4.32;;;2.50;;
47089;SDS011;32840;52.516;13.294;2023-02-28T12:05:46;5.22;;;2.60;;
47089;SDS011;32840;52.516;13.294;2023-02-28T12:11:49;5.57;;;2.42;;
47089;SDS011;32840;52.516;13.294;2023-02-28T12:18:03;8.25;;;3.22;;
47089;SDS011;32840;52.516;13.294;2023-02-28T12:21:04;6.13;;;3.13;;
47089;SDS011;32840;52.516;13.294;2023-02-28T12:26:49;6.43;;;3.25;;
47089;SDS011;32840;52.516;13.294;2023-02-28T12:29:40;6.85;;;3.55;;
47089;SDS011;32840;52.516;13.294;2023-02-28T12:32:56;7.00;;;3.85;;
47089;SDS011;32840;52.516;13.294;2023-02-28T12:35:57;6.10;;;3.97;;
47089;SDS011;32840;52.516;13.294;2023-02-28T12:42:24;8.57;;;3.92;;
47089;SDS011;32840;52.516;13.294;2023-02-28T12:44:56;10.52;;;4.45;;
47089;SDS011;32840;52.516;13.294;2023-02-28T12:47:45;8.55;;;4.18;;
47089;SDS011;32840;52.516;13.294;2023-02-28T12:50:32;6.70;;;3.78;;
47089;SDS011;32840;52.516;13.294;2023-02-28T12:53:22;8.18;;;3.95;;
47089;SDS011;32840;52.516;13.294;2023-02-28T12:59:33;8.85;;;4.68;;
47089;SDS011;32840;52.516;13.294;2023-02-28T13:05:32;8.80;;;4.28;;
47089;SDS011;32840;52.516;13.294;2023-02-28T13:11:46;7.10;;;4.10;;
47089;SDS011;32840;52.516;13.294;2023-02-28T13:14:36;5.47;;;3.45;;
47089;SDS011;32840;52.516;13.294;2023-02-28T13:17:22;9.60;;;4.38;;
47089;SDS011;32840;52.516;13.294;2023-02-28T13:20:17;10.02;;;4.13;;
47089;SDS011;32840;52.516;13.294;2023-02-28T13:23:05;9.52;;;3.85;;
47089;SDS011;32840;52.516;13.294;2023-02-28T13:32:29;10.35;;;3.65;;
47089;SDS011;32840;52.516;13.294;2023-02-28T13:35:34;7.85;;;4.40;;
47089;SDS011;32840;52.516;13.294;2023-02-28T13:38:22;10.13;;;4.53;;
47089;SDS011;32840;52.516;13.294;2023-02-28T13:44:16;5.85;;;3.45;;
47089;SDS011;32840;52.516;13.294;2023-02-28T13:49:48;7.45;;;3.65;;
47089;SDS011;32840;52.516;13.294;2023-02-28T13:52:34;7.22;;;3.75;;
47089;SDS011;32840;52.516;13.294;2023-02-28T13:55:34;5.30;;;3.42;;
47089;SDS011;32840;52.516;13.294;2023-02-28T14:05:00;6.38;;;3.13;;
47089;SDS011;32840;52.516;13.294;2023-02-28T14:07:59;10.88;;;3.65;;
47089;SDS011;32840;52.516;13.294;2023-02-28T14:11:06;7.47;;;3.63;;
47089;SDS011;32840;52.516;13.294;2023-02-28T14:13:53;16.08;;;7.75;;
47089;SDS011;32840;52.516;13.294;2023-02-28T14:16:39;7.30;;;3.63;;
47089;SDS011;32840;52.516;13.294;2023-02-28T14:19:29;8.02;;;3.58;;
47089;SDS011;32840;52.516;13.294;2023-02-28T14:31:45;7.95;;;4.07;;
47089;SDS011;32840;52.516;13.294;2023-02-28T14:34:43;7.78;;;3.97;;
47089;SDS011;32840;52.516;13.294;2023-02-28T14:37:56;7.32;;;4.32;;
47089;SDS011;32840;52.516;13.294;2023-02-28T14:40:41;6.78;;;4.03;;
47089;SDS011;32840;52.516;13.294;2023-02-28T14:43:27;6.82;;;3.60;;
47089;SDS011;32840;52.516;13.294;2023-02-28T14:46:12;10.02;;;5.07;;
47089;SDS011;32840;52.516;13.294;2023-02-28T14:48:58;8.93;;;3.78;;
47089;SDS011;32840;52.516;13.294;2023-02-28T14:51:42;11.23;;;5.40;;
47089;SDS011;32840;52.516;13.294;2023-02-28T14:54:27;8.40;;;4.22;;
47089;SDS011;32840;52.516;13.294;2023-02-28T14:57:50;9.95;;;3.50;;
47089;SDS011;32840;52.516;13.294;2023-02-28T15:00:29;6.50;;;3.50;;
47089;SDS011;32840;52.516;13.294;2023-02-28T15:06:21;7.93;;;4.30;;
47089;SDS011;32840;52.516;13.294;2023-02-28T15:09:17;16.48;;;7.50;;
47089;SDS011;32840;52.516;13.294;2023-02-28T15:12:03;20.08;;;11.88;;
47089;SDS011;32840;52.516;13.294;2023-02-28T15:14:48;12.32;;;6.65;;
47089;SDS011;32840;52.516;13.294;2023-02-28T15:17:33;7.15;;;3.80;;
47089;SDS011;32840;52.516;13.294;2023-02-28T15:20:19;8.27;;;3.83;;
47089;SDS011;32840;52.516;13.294;2023-02-28T15:23:04;6.75;;;3.63;;
47089;SDS011;32840;52.516;13.294;2023-02-28T15:25:49;13.38;;;5.35;;
47089;SDS011;32840;52.516;13.294;2023-02-28T15:28:36;8.07;;;3.80;;
47089;SDS011;32840;52.516;13.294;2023-02-28T15:31:23;6.88;;;4.22;;
47089;SDS011;32840;52.516;13.294;2023-02-28T15:34:21;6.13;;;3.55;;
47089;SDS011;32840;52.516;13.294;2023-02-28T15:37:40;8.82;;;5.10;;
47089;SDS011;32840;52.516;13.294;2023-02-28T15:40:49;6.82;;;4.00;;
47089;SDS011;32840;52.516;13.294;2023-02-28T15:43:38;10.15;;;4.57;;
47089;SDS011;32840;52.516;13.294;2023-02-28T15:46:23;8.48;;;4.13;;
47089;SDS011;32840;52.516;13.294;2023-02-28T15:49:13;9.20;;;3.40;;
47089;SDS011;32840;52.516;13.294;2023-02-28T15:52:03;11.05;;;5.40;;
47089;SDS011;32840;52.516;13.294;2023-02-28T15:54:48;7.63;;;4.38;;
47089;SDS011;32840;52.516;13.294;2023-02-28T15:57:33;7.72;;;4.07;;
47089;SDS011;32840;52.516;13.294;2023-02-28T16:00:19;10.02;;;5.55;;
47089;SDS011;32840;52.516;13.294;2023-02-28T16:03:32;7.18;;;3.85;;
47089;SDS011;32840;52.516;13.294;2023-02-28T16:09:26;7.68;;;3.60;;
47089;SDS011;32840;52.516;13.294;2023-02-28T16:12:11;7.38;;;3.33;;
47089;SDS011;32840;52.516;13.294;2023-02-28T16:14:58;6.38;;;3.70;;
47089;SDS011;32840;52.516;13.294;2023-02-28T16:17:47;8.20;;;4.78;;
47089;SDS011;32840;52.516;13.294;2023-02-28T16:20:32;8.32;;;4.35;;
47089;SDS011;32840;52.516;13.294;2023-02-28T16:23:17;8.70;;;3.90;;
47089;SDS011;32840;52.516;13.294;2023-02-28T16:26:03;6.50;;;4.15;;
47089;SDS011;32840;52.516;13.294;2023-02-28T16:28:49;8.57;;;4.00;;
47089;SDS011;32840;52.516;13.294;2023-02-28T16:31:36;7.22;;;4.10;;
47089;SDS011;32840;52.516;13.294;2023-02-28T16:34:22;10.20;;;4.28;;
47089;SDS011;32840;52.516;13.294;2023-02-28T16:37:10;13.02;;;4.65;;
47089;SDS011;32840;52.516;13.294;2023-02-28T16:39:57;7.45;;;4.22;;
47089;SDS011;32840;52.516;13.294;2023-02-28T16:42:42;11.50;;;5.53;;
47089;SDS011;32840;52.516;13.294;2023-02-28T16:45:28;9.45;;;4.65;;
47089;SDS011;32840;52.516;13.294;2023-02-28T16:48:14;15.23;;;7.72;;
47089;SDS011;32840;52.516;13.294;2023-02-28T16:51:00;11.32;;;6.35;;
47089;SDS011;32840;52.516;13.294;2023-02-28T16:53:45;9.10;;;5.93;;
47089;SDS011;32840;52.516;13.294;2023-02-28T16:56:30;26.25;;;10.70;;
47089;SDS011;32840;52.516;13.294;2023-02-28T16:59:17;11.00;;;6.00;;
47089;SDS011;32840;52.516;13.294;2023-02-28T17:02:14;11.52;;;7.05;;
47089;SDS011;32840;52.516;13.294;2023-02-28T17:05:03;10.18;;;4.50;;
47089;SDS011;32840;52.516;13.294;2023-02-28T17:07:49;10.88;;;5.20;;
47089;SDS011;32840;52.516;13.294;2023-02-28T17:10:34;9.57;;;4.88;;
47089;SDS011;32840;52.516;13.294;2023-02-28T17:13:19;8.57;;;4.72;;
47089;SDS011;32840;52.516;13.294;2023-02-28T17:16:05;11.88;;;7.25;;
47089;SDS011;32840;52.516;13.294;2023-02-28T17:18:50;7.03;;;4.15;;
47089;SDS011;32840;52.516;13.294;2023-02-28T17:21:35;9.38;;;5.45;;
47089;SDS011;32840;52.516;13.294;2023-02-28T17:24:21;8.43;;;4.97;;
47089;SDS011;32840;52.516;13.294;2023-02-28T17:27:05;7.68;;;3.88;;
47089;SDS011;32840;52.516;13.294;2023-02-28T17:29:53;10.18;;;4.57;;
47089;SDS011;32840;52.516;13.294;2023-02-28T17:32:38;8.30;;;4.30;;
47089;SDS011;32840;52.516;13.294;2023-02-28T17:35:23;8.38;;;4.07;;
47089;SDS011;32840;52.516;13.294;2023-02-28T17:38:12;9.48;;;4.53;;
47089;SDS011;32840;52.516;13.294;2023-02-28T17:41:01;7.72;;;4.95;;
47089;SDS011;32840;52.516;13.294;2023-02-28T17:43:56;6.45;;;4.10;;
47089;SDS011;32840;52.516;13.294;2023-02-28T17:46:41;7.65;;;4.10;;
47089;SDS011;32840;52.516;13.294;2023-02-28T17:49:27;9.65;;;4.47;;
47089;SDS011;32840;52.516;13.294;2023-02-28T17:52:12;11.55;;;4.55;;
47089;SDS011;32840;52.516;13.294;2023-02-28T17:54:57;8.63;;;4.40;;
47089;SDS011;32840;52.516;13.294;2023-02-28T17:57:42;11.40;;;5.22;;
47089;SDS011;32840;52.516;13.294;2023-02-28T18:00:27;10.55;;;4.80;;
47089;SDS011;32840;52.516;13.294;2023-02-28T18:03:12;18.63;;;7.78;;
47089;SDS011;32840;52.516;13.294;2023-02-28T18:05:58;9.02;;;4.95;;
47089;SDS011;32840;52.516;13.294;2023-02-28T18:08:43;11.10;;;5.07;;
47089;SDS011;32840;52.516;13.294;2023-02-28T18:11:28;8.65;;;4.65;;
47089;SDS011;32840;52.516;13.294;2023-02-28T18:14:25;9.68;;;4.57;;
47089;SDS011;32840;52.516;13.294;2023-02-28T18:17:11;10.70;;;4.85;;